sensor_id;sensor_type;location;lat;lon;timestamp;pressure;altitude;pressure_sealevel;temperature;humidity
3206;BME280;1615;53.602;11.418;2023-03-26T00:01:46;99645.88;;;10.29;100.00
3206;BME280;1615;53.602;11.418;2023-03-26T00:04:14;99671.53;;;10.41;100.00
3206;BME280;1615;53.602;11.418;2023-03-26T00:06:45;99580.19;;;9.90;100.00
3206;BME280;1615;53.602;11.418;2023-03-26T00:09:13;99676.84;;;10.38;100.00
3206;BME280;1615;53.602;11.418;2023-03-26T00:11:39;99675.38;;;10.32;100.00
3206;BME280;1615;53.602;11.418;2023-03-26T00:14:05;99678.00;;;10.45;100.00
3206;BME280;1615;53.602;11.418;2023-03-26T00:16:30;99666.50;;;10.26;100.00
3206;BME280;1615;53.602;11.418;2023-03-26T00:18:56;99685.25;;;10.50;100.00
3206;BME280;1615;53.602;11.418;2023-03-26T00:21:23;99696.34;;;10.36;100.00
3206;BME280;1615;53.602;11.418;2023-03-26T00:23:52;99702.91;;;10.27;100.00
3206;BME280;1615;53.602;11.418;2023-03-26T00:26:17;99681.00;;;10.27;100.00
3206;BME280;1615;53.602;11.418;2023-03-26T00:28:43;99702.00;;;10.40;100.00
3206;BME280;1615;53.602;11.418;2023-03-26T00:31:11;99708.13;;;10.37;100.00
3206;BME280;1615;53.602;11.418;2023-03-26T00:33:37;99563.00;;;9.50;100.00
3206;BME280;1615;53.602;11.418;2023-03-26T00:36:07;99685.88;;;10.30;100.00
3206;BME280;1615;53.602;11.418;2023-03-26T00:38:34;99716.03;;;10.38;100.00
3206;BME280;1615;53.602;11.418;2023-03-26T00:41:04;99713.59;;;10.37;100.00
3206;BME280;1615;53.602;11.418;2023-03-26T00:43:31;99716.31;;;10.28;100.00
3206;BME280;1615;53.602;11.418;2023-03-26T00:45:57;99651.50;;;9.85;100.00
3206;BME280;1615;53.602;11.418;2023-03-26T00:48:23;99720.47;;;10.26;100.00
3206;BME280;1615;53.602;11.418;2023-03-26T00:50:49;99720.34;;;10.31;100.00
3206;BME280;1615;53.602;11.418;2023-03-26T00:53:15;99720.50;;;10.34;100.00
3206;BME280;1615;53.602;11.418;2023-03-26T00:55:45;99708.41;;;10.27;100.00
3206;BME280;1615;53.602;11.418;2023-03-26T00:58:12;99714.22;;;10.34;100.00
3206;BME280;1615;53.602;11.418;2023-03-26T01:00:46;99565.34;;;9.35;100.00
3206;BME280;1615;53.602;11.418;2023-03-26T01:03:14;99727.78;;;10.39;100.00
3206;BME280;1615;53.602;11.418;2023-03-26T01:06:18;99738.72;;;10.39;100.00
3206;BME280;1615;53.602;11.418;2023-03-26T01:08:48;99733.91;;;10.36;100.00
3206;BME280;1615;53.602;11.418;2023-03-26T01:11:20;99617.91;;;9.62;100.00
3206;BME280;1615;53.602;11.418;2023-03-26T01:13:51;99732.28;;;10.35;100.00
3206;BME280;1615;53.602;11.418;2023-03-26T01:16:54;99737.94;;;10.38;100.00
3206;BME280;1615;53.602;11.418;2023-03-26T01:19:38;99741.31;;;10.44;100.00
3206;BME280;1615;53.602;11.418;2023-03-26T01:22:12;99741.50;;;10.47;100.00
3206;BME280;1615;53.602;11.418;2023-03-26T01:24:39;99739.88;;;10.46;100.00
3206;BME280;1615;53.602;11.418;2023-03-26T01:29:43;99747.91;;;10.34;100.00
3206;BME280;1615;53.602;11.418;2023-03-26T01:32:21;99755.00;;;10.35;100.00
3206;BME280;1615;53.602;11.418;2023-03-26T01:37:59;99754.63;;;10.20;100.00
3206;BME280;1615;53.602;11.418;2023-03-26T01:40:34;99758.19;;;10.29;100.00
3206;BME280;1615;53.602;11.418;2023-03-26T01:43:38;99747.09;;;10.34;100.00
3206;BME280;1615;53.602;11.418;2023-03-26T01:46:10;99752.44;;;10.39;100.00
3206;BME280;1615;53.602;11.418;2023-03-26T01:48:39;99756.44;;;10.33;100.00
3206;BME280;1615;53.602;11.418;2023-03-26T01:51:06;99755.16;;;10.39;100.00
3206;BME280;1615;53.602;11.418;2023-03-26T01:53:35;99757.56;;;10.32;100.00
3206;BME280;1615;53.602;11.418;2023-03-26T01:59:17;99756.81;;;10.40;100.00
3206;BME280;1615;53.602;11.418;2023-03-26T02:02:03;99763.91;;;10.41;100.00
3206;BME280;1615;53.602;11.418;2023-03-26T02:04:34;99762.28;;;10.40;100.00
3206;BME280;1615;53.602;11.418;2023-03-26T02:07:20;99768.69;;;10.35;100.00
3206;BME280;1615;53.602;11.418;2023-03-26T02:09:54;99764.69;;;10.41;100.00
3206;BME280;1615;53.602;11.418;2023-03-26T02:12:21;99770.16;;;10.41;100.00
3206;BME280;1615;53.602;11.418;2023-03-26T02:14:48;99767.91;;;10.35;100.00
3206;BME280;1615;53.602;11.418;2023-03-26T02:17:13;99775.91;;;10.31;100.00
3206;BME280;1615;53.602;11.418;2023-03-26T02:19:38;99773.38;;;10.35;100.00
3206;BME280;1615;53.602;11.418;2023-03-26T02:22:08;99755.28;;;10.25;100.00
3206;BME280;1615;53.602;11.418;2023-03-26T02:24:36;99779.34;;;10.37;100.00
3206;BME280;1615;53.602;11.418;2023-03-26T02:27:02;99773.25;;;10.40;100.00
3206;BME280;1615;53.602;11.418;2023-03-26T02:29:27;99768.72;;;10.44;100.00
3206;BME280;1615;53.602;11.418;2023-03-26T02:31:53;99771.00;;;10.42;100.00
3206;BME280;1615;53.602;11.418;2023-03-26T02:34:19;99773.72;;;10.42;100.00
3206;BME280;1615;53.602;11.418;2023-03-26T02:36:44;99701.50;;;9.99;100.00
3206;BME280;1615;53.602;11.418;2023-03-26T02:39:09;99660.25;;;9.65;100.00
3206;BME280;1615;53.602;11.418;2023-03-26T02:41:36;99767.75;;;10.40;100.00
3206;BME280;1615;53.602;11.418;2023-03-26T02:44:03;99768.91;;;10.47;100.00
3206;BME280;1615;53.602;11.418;2023-03-26T02:46:29;99755.81;;;10.36;100.00
3206;BME280;1615;53.602;11.418;2023-03-26T02:48:54;99769.53;;;10.44;100.00
3206;BME280;1615;53.602;11.418;2023-03-26T02:51:20;99768.88;;;10.39;100.00
3206;BME280;1615;53.602;11.418;2023-03-26T02:53:45;99639.00;;;9.62;100.00
3206;BME280;1615;53.602;11.418;2023-03-26T02:56:11;99775.34;;;10.43;100.00
3206;BME280;1615;53.602;11.418;2023-03-26T02:58:37;99766.94;;;10.39;100.00
3206;BME280;1615;53.602;11.418;2023-03-26T03:01:02;99770.91;;;10.25;100.00
3206;BME280;1615;53.602;11.418;2023-03-26T03:03:28;99776.91;;;10.35;100.00
3206;BME280;1615;53.602;11.418;2023-03-26T03:05:54;99783.03;;;10.32;100.00
3206;BME280;1615;53.602;11.418;2023-03-26T03:08:22;99785.56;;;10.29;100.00
3206;BME280;1615;53.602;11.418;2023-03-26T03:10:55;99781.53;;;10.26;100.00
3206;BME280;1615;53.602;11.418;2023-03-26T03:13:21;99783.47;;;10.26;100.00
3206;BME280;1615;53.602;11.418;2023-03-26T03:15:47;99786.69;;;10.28;100.00
3206;BME280;1615;53.602;11.418;2023-03-26T03:18:12;99788.31;;;10.29;100.00
3206;BME280;1615;53.602;11.418;2023-03-26T03:20:37;99780.25;;;10.24;100.00
3206;BME280;1615;53.602;11.418;2023-03-26T03:23:02;99783.47;;;10.26;100.00
3206;BME280;1615;53.602;11.418;2023-03-26T03:25:28;99794.56;;;10.21;100.00
3206;BME280;1615;53.602;11.418;2023-03-26T03:27:53;99775.91;;;10.01;100.00
3206;BME280;1615;53.602;11.418;2023-03-26T03:30:18;99786.84;;;10.01;100.00
3206;BME280;1615;53.602;11.418;2023-03-26T03:32:44;99800.06;;;9.99;100.00
3206;BME280;1615;53.602;11.418;2023-03-26T03:35:09;99798.19;;;9.86;100.00
3206;BME280;1615;53.602;11.418;2023-03-26T03:37:34;99805.84;;;9.75;100.00
3206;BME280;1615;53.602;11.418;2023-03-26T03:40:00;99803.13;;;9.75;100.00
3206;BME280;1615;53.602;11.418;2023-03-26T03:42:25;99807.94;;;9.78;100.00
3206;BME280;1615;53.602;11.418;2023-03-26T03:44:51;99810.13;;;9.68;100.00
3206;BME280;1615;53.602;11.418;2023-03-26T03:47:16;99815.53;;;9.59;100.00
3206;BME280;1615;53.602;11.418;2023-03-26T03:49:42;99818.53;;;9.49;100.00
3206;BME280;1615;53.602;11.418;2023-03-26T03:52:07;99792.59;;;9.47;100.00
3206;BME280;1615;53.602;11.418;2023-03-26T03:54:32;99809.78;;;9.61;100.00
3206;BME280;1615;53.602;11.418;2023-03-26T03:56:58;99807.94;;;9.56;100.00
3206;BME280;1615;53.602;11.418;2023-03-26T03:59:23;99793.81;;;9.41;100.00
3206;BME280;1615;53.602;11.418;2023-03-26T04:01:48;99804.41;;;9.34;100.00
3206;BME280;1615;53.602;11.418;2023-03-26T04:04:15;99795.91;;;9.22;100.00
3206;BME280;1615;53.602;11.418;2023-03-26T04:06:41;99642.91;;;8.24;100.00
3206;BME280;1615;53.602;11.418;2023-03-26T04:09:06;99816.66;;;9.36;100.00
3206;BME280;1615;53.602;11.418;2023-03-26T04:11:31;99818.06;;;9.34;100.00
3206;BME280;1615;53.602;11.418;2023-03-26T04:13:56;99822.03;;;9.28;100.00
3206;BME280;1615;53.602;11.418;2023-03-26T04:16:22;99809.97;;;9.29;100.00
3206;BME280;1615;53.602;11.418;2023-03-26T04:18:47;99816.94;;;9.35;100.00
3206;BME280;1615;53.602;11.418;2023-03-26T04:21:12;99818.25;;;9.37;100.00
3206;BME280;1615;53.602;11.418;2023-03-26T04:23:39;99817.31;;;9.42;100.00
3206;BME280;1615;53.602;11.418;2023-03-26T04:26:07;99817.31;;;9.42;100.00
3206;BME280;1615;53.602;11.418;2023-03-26T04:28:49;99808.81;;;9.43;100.00
3206;BME280;1615;53.602;11.418;2023-03-26T04:31:20;99808.63;;;9.40;100.00
3206;BME280;1615;53.602;11.418;2023-03-26T04:33:53;99834.75;;;9.46;100.00
3206;BME280;1615;53.602;11.418;2023-03-26T04:36:25;99658.13;;;8.38;100.00
3206;BME280;1615;53.602;11.418;2023-03-26T04:38:52;99814.22;;;9.35;100.00
3206;BME280;1615;53.602;11.418;2023-03-26T04:41:17;99810.66;;;9.34;100.00
3206;BME280;1615;53.602;11.418;2023-03-26T04:43:43;99822.59;;;9.38;100.00
3206;BME280;1615;53.602;11.418;2023-03-26T04:46:15;99817.31;;;9.42;100.00
3206;BME280;1615;53.602;11.418;2023-03-26T04:48:43;99834.94;;;9.49;100.00
3206;BME280;1615;53.602;11.418;2023-03-26T04:51:09;99830.28;;;9.50;100.00
3206;BME280;1615;53.602;11.418;2023-03-26T04:53:43;99738.69;;;8.90;100.00
3206;BME280;1615;53.602;11.418;2023-03-26T04:56:38;99829.09;;;9.42;100.00
3206;BME280;1615;53.602;11.418;2023-03-26T04:59:05;99820.69;;;9.39;100.00
3206;BME280;1615;53.602;11.418;2023-03-26T05:01:32;99823.03;;;9.32;100.00
3206;BME280;1615;53.602;11.418;2023-03-26T05:03:57;99819.69;;;9.35;100.00
3206;BME280;1615;53.602;11.418;2023-03-26T05:06:24;99826.38;;;9.29;100.00
3206;BME280;1615;53.602;11.418;2023-03-26T05:08:52;99822.78;;;9.42;100.00
3206;BME280;1615;53.602;11.418;2023-03-26T05:11:18;99813.56;;;9.38;100.00
3206;BME280;1615;53.602;11.418;2023-03-26T05:13:43;99828.44;;;9.45;100.00
3206;BME280;1615;53.602;11.418;2023-03-26T05:16:09;99824.63;;;9.33;100.00
3206;BME280;1615;53.602;11.418;2023-03-26T05:18:35;99823.03;;;9.32;100.00
3206;BME280;1615;53.602;11.418;2023-03-26T05:21:01;99827.47;;;9.41;100.00
3206;BME280;1615;53.602;11.418;2023-03-26T05:23:26;99833.97;;;9.32;100.00
3206;BME280;1615;53.602;11.418;2023-03-26T05:25:51;99832.16;;;9.27;100.00
3206;BME280;1615;53.602;11.418;2023-03-26T05:28:17;99839.75;;;9.17;100.00
3206;BME280;1615;53.602;11.418;2023-03-26T05:30:45;99764.50;;;8.84;100.00
3206;BME280;1615;53.602;11.418;2023-03-26T05:33:10;99831.22;;;9.32;100.00
3206;BME280;1615;53.602;11.418;2023-03-26T05:35:36;99831.13;;;9.37;100.00
3206;BME280;1615;53.602;11.418;2023-03-26T05:38:01;99826.28;;;9.34;100.00
3206;BME280;1615;53.602;11.418;2023-03-26T05:40:26;99699.09;;;8.52;100.00
3206;BME280;1615;53.602;11.418;2023-03-26T05:42:52;99829.00;;;9.34;100.00
3206;BME280;1615;53.602;11.418;2023-03-26T05:45:17;99757.31;;;8.88;100.00
3206;BME280;1615;53.602;11.418;2023-03-26T05:47:42;99837.00;;;9.30;100.00
3206;BME280;1615;53.602;11.418;2023-03-26T05:50:09;99837.09;;;9.39;100.00
3206;BME280;1615;53.602;11.418;2023-03-26T05:52:34;99835.47;;;9.38;100.00
3206;BME280;1615;53.602;11.418;2023-03-26T05:55:00;99832.00;;;9.46;100.00
3206;BME280;1615;53.602;11.418;2023-03-26T05:57:28;99833.84;;;9.37;100.00
3206;BME280;1615;53.602;11.418;2023-03-26T05:59:54;99822.31;;;9.40;100.00
3206;BME280;1615;53.602;11.418;2023-03-26T06:02:20;99826.00;;;9.57;100.00
3206;BME280;1615;53.602;11.418;2023-03-26T06:04:45;99827.63;;;9.58;100.00
3206;BME280;1615;53.602;11.418;2023-03-26T06:07:11;99828.28;;;9.64;100.00
3206;BME280;1615;53.602;11.418;2023-03-26T06:09:39;99560.28;;;8.05;100.00
3206;BME280;1615;53.602;11.418;2023-03-26T06:12:06;99831.59;;;9.74;100.00
3206;BME280;1615;53.602;11.418;2023-03-26T06:14:31;99830.53;;;9.84;100.00
3206;BME280;1615;53.602;11.418;2023-03-26T06:16:56;99827.88;;;9.92;100.00
3206;BME280;1615;53.602;11.418;2023-03-26T06:19:22;99830.53;;;9.84;100.00
3206;BME280;1615;53.602;11.418;2023-03-26T06:21:47;99832.16;;;9.85;100.00
3206;BME280;1615;53.602;11.418;2023-03-26T06:24:13;99827.19;;;9.87;100.00
3206;BME280;1615;53.602;11.418;2023-03-26T06:26:40;99836.84;;;9.84;100.00
3206;BME280;1615;53.602;11.418;2023-03-26T06:29:05;99840.47;;;9.80;100.00
3206;BME280;1615;53.602;11.418;2023-03-26T06:31:31;99834.78;;;9.90;100.00
3206;BME280;1615;53.602;11.418;2023-03-26T06:33:56;99844.47;;;9.96;100.00
3206;BME280;1615;53.602;11.418;2023-03-26T06:36:21;99848.50;;;9.98;100.00
3206;BME280;1615;53.602;11.418;2023-03-26T06:38:47;99850.59;;;9.93;100.00
3206;BME280;1615;53.602;11.418;2023-03-26T06:41:12;99870.34;;;9.90;100.00
3206;BME280;1615;53.602;11.418;2023-03-26T06:43:37;99851.19;;;9.90;100.00
3206;BME280;1615;53.602;11.418;2023-03-26T06:46:03;99863.75;;;9.91;100.00
3206;BME280;1615;53.602;11.418;2023-03-26T06:48:29;99862.78;;;9.87;100.00
3206;BME280;1615;53.602;11.418;2023-03-26T06:50:55;99884.28;;;9.80;100.00
3206;BME280;1615;53.602;11.418;2023-03-26T06:53:20;99848.69;;;9.80;100.00
3206;BME280;1615;53.602;11.418;2023-03-26T06:55:45;99869.63;;;9.98;100.00
3206;BME280;1615;53.602;11.418;2023-03-26T06:58:11;99872.97;;;9.95;100.00
3206;BME280;1615;53.602;11.418;2023-03-26T07:00:37;99759.53;;;8.99;100.00
3206;BME280;1615;53.602;11.418;2023-03-26T07:03:05;99859.03;;;9.61;100.00
3206;BME280;1615;53.602;11.418;2023-03-26T07:05:30;99878.91;;;9.75;100.00
3206;BME280;1615;53.602;11.418;2023-03-26T07:07:56;99833.38;;;9.57;100.00
3206;BME280;1615;53.602;11.418;2023-03-26T07:10:21;99878.38;;;9.86;100.00
3206;BME280;1615;53.602;11.418;2023-03-26T07:12:47;99859.47;;;9.76;100.00
3206;BME280;1615;53.602;11.418;2023-03-26T07:15:12;99877.78;;;9.89;100.00
3206;BME280;1615;53.602;11.418;2023-03-26T07:17:38;99748.44;;;9.18;100.00
3206;BME280;1615;53.602;11.418;2023-03-26T07:20:04;99880.19;;;9.91;100.00
3206;BME280;1615;53.602;11.418;2023-03-26T07:22:31;99879.22;;;9.87;100.00
3206;BME280;1615;53.602;11.418;2023-03-26T07:24:57;99734.38;;;9.11;100.00
3206;BME280;1615;53.602;11.418;2023-03-26T07:27:52;99880.75;;;10.01;100.00
3206;BME280;1615;53.602;11.418;2023-03-26T07:33:03;99872.75;;;10.05;100.00
3206;BME280;1615;53.602;11.418;2023-03-26T07:35:47;99893.25;;;9.94;100.00
3206;BME280;1615;53.602;11.418;2023-03-26T07:38:32;99872.25;;;10.03;100.00
3206;BME280;1615;53.602;11.418;2023-03-26T07:41:21;99871.63;;;10.06;100.00
3206;BME280;1615;53.602;11.418;2023-03-26T07:44:10;99869.38;;;10.30;100.00
3206;BME280;1615;53.602;11.418;2023-03-26T07:46:42;99877.56;;;10.52;100.00
3206;BME280;1615;53.602;11.418;2023-03-26T07:49:10;99863.59;;;10.62;100.00
3206;BME280;1615;53.602;11.418;2023-03-26T07:51:36;99884.56;;;10.66;100.00
3206;BME280;1615;53.602;11.418;2023-03-26T07:54:02;99866.50;;;10.65;100.00
3206;BME280;1615;53.602;11.418;2023-03-26T07:56:33;99832.03;;;10.42;100.00
3206;BME280;1615;53.602;11.418;2023-03-26T07:59:19;99869.22;;;10.57;100.00
3206;BME280;1615;53.602;11.418;2023-03-26T08:05:08;99869.22;;;10.57;100.00
3206;BME280;1615;53.602;11.418;2023-03-26T08:08:13;99873.25;;;10.59;100.00
3206;BME280;1615;53.602;11.418;2023-03-26T08:10:54;99879.50;;;10.51;100.00
3206;BME280;1615;53.602;11.418;2023-03-26T08:13:31;99879.50;;;10.51;100.00
3206;BME280;1615;53.602;11.418;2023-03-26T08:16:13;99821.31;;;10.02;100.00
3206;BME280;1615;53.602;11.418;2023-03-26T08:19:07;99881.84;;;10.36;100.00
3206;BME280;1615;53.602;11.418;2023-03-26T08:22:16;99882.69;;;10.23;100.00
3206;BME280;1615;53.602;11.418;2023-03-26T08:27:40;99883.59;;;10.10;100.00
3206;BME280;1615;53.602;11.418;2023-03-26T08:30:12;99858.63;;;10.11;100.00
3206;BME280;1615;53.602;11.418;2023-03-26T08:32:39;99880.31;;;10.52;100.00
3206;BME280;1615;53.602;11.418;2023-03-26T08:35:05;99882.75;;;10.53;100.00
3206;BME280;1615;53.602;11.418;2023-03-26T08:37:30;99872.03;;;10.43;100.00
3206;BME280;1615;53.602;11.418;2023-03-26T08:39:56;99882.84;;;10.40;100.00
3206;BME280;1615;53.602;11.418;2023-03-26T08:48:36;99886.78;;;10.56;100.00
3206;BME280;1615;53.602;11.418;2023-03-26T08:51:32;99883.53;;;10.54;100.00
3206;BME280;1615;53.602;11.418;2023-03-26T09:02:37;99880.44;;;10.47;100.00
3206;BME280;1615;53.602;11.418;2023-03-26T09:05:36;99884.25;;;10.68;100.00
3206;BME280;1615;53.602;11.418;2023-03-26T09:11:21;99888.38;;;10.87;100.00
3206;BME280;1615;53.602;11.418;2023-03-26T09:14:12;99887.84;;;10.77;100.00
3206;BME280;1615;53.602;11.418;2023-03-26T09:22:16;99884.66;;;10.22;100.00
3206;BME280;1615;53.602;11.418;2023-03-26T09:30:32;99890.66;;;10.33;100.00
3206;BME280;1615;53.602;11.418;2023-03-26T09:36:06;99888.13;;;10.67;100.00
3206;BME280;1615;53.602;11.418;2023-03-26T09:39:08;99883.63;;;10.71;100.00
3206;BME280;1615;53.602;11.418;2023-03-26T09:41:42;99898.19;;;10.80;100.00
3206;BME280;1615;53.602;11.418;2023-03-26T09:44:36;99895.53;;;11.05;100.00
3206;BME280;1615;53.602;11.418;2023-03-26T09:50:01;99888.72;;;11.42;100.00
3206;BME280;1615;53.602;11.418;2023-03-26T10:06:54;99912.00;;;11.05;100.00
3206;BME280;1615;53.602;11.418;2023-03-26T10:09:39;99907.50;;;11.09;100.00
3206;BME280;1615;53.602;11.418;2023-03-26T10:12:30;99899.97;;;11.23;100.00
3206;BME280;1615;53.602;11.418;2023-03-26T10:17:59;99905.19;;;11.42;100.00
3206;BME280;1615;53.602;11.418;2023-03-26T10:20:32;99907.44;;;11.57;100.00
3206;BME280;1615;53.602;11.418;2023-03-26T10:28:50;99901.38;;;11.77;100.00
3206;BME280;1615;53.602;11.418;2023-03-26T10:31:42;99902.50;;;11.84;100.00
3206;BME280;1615;53.602;11.418;2023-03-26T10:34:30;99913.34;;;11.81;100.00
3206;BME280;1615;53.602;11.418;2023-03-26T10:37:08;99916.53;;;11.66;100.00
3206;BME280;1615;53.602;11.418;2023-03-26T10:39:49;99908.09;;;11.54;100.00
3206;BME280;1615;53.602;11.418;2023-03-26T10:42:34;99908.41;;;11.52;100.00
3206;BME280;1615;53.602;11.418;2023-03-26T10:48:27;99919.34;;;11.35;100.00
3206;BME280;1615;53.602;11.418;2023-03-26T10:51:23;99925.44;;;11.24;100.00
3206;BME280;1615;53.602;11.418;2023-03-26T10:56:45;99849.34;;;10.90;100.00
3206;BME280;1615;53.602;11.418;2023-03-26T10:59:13;99980.22;;;11.37;100.00
3206;BME280;1615;53.602;11.418;2023-03-26T11:01:50;99914.06;;;11.47;100.00
3206;BME280;1615;53.602;11.418;2023-03-26T11:05:16;99921.25;;;11.65;100.00
3206;BME280;1615;53.602;11.418;2023-03-26T11:07:59;99919.44;;;11.69;100.00
3206;BME280;1615;53.602;11.418;2023-03-26T11:10:38;99917.81;;;11.60;100.00
3206;BME280;1615;53.602;11.418;2023-03-26T11:16:23;99928.19;;;11.63;100.00
3206;BME280;1615;53.602;11.418;2023-03-26T11:18:58;99926.09;;;11.85;100.00
3206;BME280;1615;53.602;11.418;2023-03-26T11:21:34;99920.13;;;12.09;100.00
3206;BME280;1615;53.602;11.418;2023-03-26T11:26:54;99920.28;;;12.38;99.64
3206;BME280;1615;53.602;11.418;2023-03-26T11:32:19;99912.63;;;12.52;99.58
3206;BME280;1615;53.602;11.418;2023-03-26T11:34:59;99917.81;;;12.45;100.00
3206;BME280;1615;53.602;11.418;2023-03-26T11:37:31;99915.56;;;12.30;94.18
3206;BME280;1615;53.602;11.418;2023-03-26T11:39:59;99926.09;;;12.28;93.67
3206;BME280;1615;53.602;11.418;2023-03-26T11:42:26;99845.63;;;12.02;97.05
3206;BME280;1615;53.602;11.418;2023-03-26T11:44:59;99911.03;;;12.51;97.41
3206;BME280;1615;53.602;11.418;2023-03-26T11:47:34;99920.41;;;12.50;96.49
3206;BME280;1615;53.602;11.418;2023-03-26T11:50:04;99907.94;;;12.52;96.24
3206;BME280;1615;53.602;11.418;2023-03-26T11:52:31;99907.09;;;12.60;97.43
3206;BME280;1615;53.602;11.418;2023-03-26T11:54:56;99899.81;;;12.64;95.96
3206;BME280;1615;53.602;11.418;2023-03-26T11:57:30;99747.31;;;11.70;94.97
3206;BME280;1615;53.602;11.418;2023-03-26T12:00:09;99880.31;;;12.49;90.53
3206;BME280;1615;53.602;11.418;2023-03-26T12:02:43;99752.47;;;11.71;86.52
3206;BME280;1615;53.602;11.418;2023-03-26T12:05:27;99893.22;;;12.57;85.34
3206;BME280;1615;53.602;11.418;2023-03-26T12:07:59;99894.03;;;12.57;89.41
3206;BME280;1615;53.602;11.418;2023-03-26T12:12:52;99900.44;;;12.78;89.73
3206;BME280;1615;53.602;11.418;2023-03-26T12:15:19;99791.59;;;12.31;90.45
3206;BME280;1615;53.602;11.418;2023-03-26T12:17:47;99885.13;;;13.06;88.19
3206;BME280;1615;53.602;11.418;2023-03-26T12:22:52;99887.56;;;13.08;90.44
3206;BME280;1615;53.602;11.418;2023-03-26T12:25:33;99885.94;;;12.61;88.10
3206;BME280;1615;53.602;11.418;2023-03-26T12:30:41;99887.13;;;12.43;85.20
3206;BME280;1615;53.602;11.418;2023-03-26T12:33:18;99891.94;;;12.46;90.15
3206;BME280;1615;53.602;11.418;2023-03-26T12:35:44;99788.16;;;11.80;87.81
3206;BME280;1615;53.602;11.418;2023-03-26T12:40:40;99891.53;;;12.73;92.77
3206;BME280;1615;53.602;11.418;2023-03-26T12:43:46;99894.44;;;12.76;88.81
3206;BME280;1615;53.602;11.418;2023-03-26T12:46:28;99894.16;;;12.69;93.94
3206;BME280;1615;53.602;11.418;2023-03-26T12:48:57;99895.78;;;12.62;98.91
3206;BME280;1615;53.602;11.418;2023-03-26T12:51:43;99898.84;;;12.60;97.19
3206;BME280;1615;53.602;11.418;2023-03-26T12:57:38;99895.53;;;12.38;98.49
3206;BME280;1615;53.602;11.418;2023-03-26T13:03:07;99900.25;;;12.03;98.14
3206;BME280;1615;53.602;11.418;2023-03-26T13:06:07;99898.81;;;12.06;100.00
3206;BME280;1615;53.602;11.418;2023-03-26T13:14:07;99891.84;;;12.25;91.96
3206;BME280;1615;53.602;11.418;2023-03-26T13:22:16;99878.66;;;12.65;93.80
3206;BME280;1615;53.602;11.418;2023-03-26T13:27:52;99881.22;;;12.70;94.34
3206;BME280;1615;53.602;11.418;2023-03-26T13:30:38;99878.81;;;12.60;93.81
3206;BME280;1615;53.602;11.418;2023-03-26T13:33:32;99923.47;;;12.48;97.92
3206;BME280;1615;53.602;11.418;2023-03-26T13:36:13;99877.25;;;12.33;94.53
3206;BME280;1615;53.602;11.418;2023-03-26T13:38:58;99873.22;;;12.31;94.73
3206;BME280;1615;53.602;11.418;2023-03-26T13:41:32;99877.91;;;12.39;95.54
3206;BME280;1615;53.602;11.418;2023-03-26T13:44:12;99873.19;;;12.48;97.01
3206;BME280;1615;53.602;11.418;2023-03-26T13:46:52;99834.75;;;12.31;96.11
3206;BME280;1615;53.602;11.418;2023-03-26T13:49:28;99868.50;;;12.48;96.36
3206;BME280;1615;53.602;11.418;2023-03-26T13:52:01;99874.13;;;12.52;96.51
3206;BME280;1615;53.602;11.418;2023-03-26T13:54:34;99876.88;;;12.52;96.07
3206;BME280;1615;53.602;11.418;2023-03-26T13:57:17;99869.13;;;12.54;93.31
3206;BME280;1615;53.602;11.418;2023-03-26T13:59:51;99865.06;;;12.60;94.11
3206;BME280;1615;53.602;11.418;2023-03-26T14:02:35;99864.06;;;12.64;94.87
3206;BME280;1615;53.602;11.418;2023-03-26T14:05:08;99858.53;;;12.73;90.40
3206;BME280;1615;53.602;11.418;2023-03-26T14:10:09;99859.72;;;12.63;88.13
3206;BME280;1615;53.602;11.418;2023-03-26T14:15:48;99634.66;;;11.24;90.04
3206;BME280;1615;53.602;11.418;2023-03-26T14:18:36;99859.75;;;12.92;94.17
3206;BME280;1615;53.602;11.418;2023-03-26T14:21:24;99850.66;;;13.09;93.49
3206;BME280;1615;53.602;11.418;2023-03-26T14:24:18;99857.19;;;13.25;91.92
3206;BME280;1615;53.602;11.418;2023-03-26T14:29:51;99855.50;;;13.12;87.31
3206;BME280;1615;53.602;11.418;2023-03-26T14:40:55;99876.81;;;12.77;97.03
3206;BME280;1615;53.602;11.418;2023-03-26T14:43:58;99883.00;;;12.66;96.27
3206;BME280;1615;53.602;11.418;2023-03-26T14:54:40;99846.09;;;12.12;98.29
3206;BME280;1615;53.602;11.418;2023-03-26T15:13:54;99878.09;;;12.17;91.45
3206;BME280;1615;53.602;11.418;2023-03-26T15:25:20;99879.03;;;12.38;96.92
3206;BME280;1615;53.602;11.418;2023-03-26T15:28:31;99879.03;;;12.38;95.89
3206;BME280;1615;53.602;11.418;2023-03-26T15:31:11;99883.22;;;12.44;97.31
3206;BME280;1615;53.602;11.418;2023-03-26T15:33:59;99876.59;;;12.45;98.60
3206;BME280;1615;53.602;11.418;2023-03-26T15:37:06;99888.41;;;12.45;98.79
3206;BME280;1615;53.602;11.418;2023-03-26T15:42:20;99896.06;;;12.06;94.30
3206;BME280;1615;53.602;11.418;2023-03-26T15:47:41;99973.44;;;11.91;96.75
3206;BME280;1615;53.602;11.418;2023-03-26T15:53:04;99909.34;;;11.31;100.00
3206;BME280;1615;53.602;11.418;2023-03-26T15:55:59;99841.47;;;10.28;100.00
3206;BME280;1615;53.602;11.418;2023-03-26T15:58:43;99915.88;;;10.43;100.00
3206;BME280;1615;53.602;11.418;2023-03-26T16:01:14;99924.66;;;10.32;100.00
3206;BME280;1615;53.602;11.418;2023-03-26T16:11:57;99918.34;;;10.31;100.00
3206;BME280;1615;53.602;11.418;2023-03-26T16:17:02;99930.25;;;10.05;100.00
3206;BME280;1615;53.602;11.418;2023-03-26T16:19:53;99935.88;;;10.22;100.00
3206;BME280;1615;53.602;11.418;2023-03-26T16:27:42;99935.94;;;9.95;100.00
3206;BME280;1615;53.602;11.418;2023-03-26T16:30:25;99950.91;;;10.11;100.00
3206;BME280;1615;53.602;11.418;2023-03-26T16:32:55;99837.66;;;9.14;100.00
3206;BME280;1615;53.602;11.418;2023-03-26T16:35:40;99941.06;;;9.74;100.00
3206;BME280;1615;53.602;11.418;2023-03-26T16:38:14;99948.13;;;9.89;100.00
3206;BME280;1615;53.602;11.418;2023-03-26T16:40:55;99944.78;;;9.92;100.00
3206;BME280;1615;53.602;11.418;2023-03-26T16:46:32;99957.66;;;10.05;100.00
3206;BME280;1615;53.602;11.418;2023-03-26T16:49:15;99967.09;;;9.85;100.00
3206;BME280;1615;53.602;11.418;2023-03-26T16:52:21;99957.91;;;9.68;100.00
3206;BME280;1615;53.602;11.418;2023-03-26T16:57:36;99964.13;;;9.60;100.00